Time;durP1;ratioP1;P1;durP2;ratioP2;P2;SDS_P1;SDS_P2;PMS_P1;PMS_P2;Temp;Humidity;BMP_temperature;BMP_pressure;BME280_temperature;BME280_humidity;BME280_pressure;Samples;Min_cycle;Max_cycle;Signal;HPM_P1;HPM_P2
2022/10/23 00:00:17;;;;;;;6.97;4.97;;;;;;;;;;5052871;28;20209;-80
2022/10/23 00:02:44;;;;;;;7.73;4.97;;;;;;;;;;5052284;28;20592;-80
2022/10/23 00:05:10;;;;;;;6.13;5.17;;;;;;;;;;5052587;28;20563;-80
2022/10/23 00:07:37;;;;;;;5.70;5.20;;;;;;;;;;5052705;28;20201;-80
2022/10/23 00:10:05;;;;;;;8.73;5.53;;;;;;;;;;5052138;28;21119;-80
2022/10/23 00:12:33;;;;;;;6.73;4.97;;;;;;;;;;5052789;28;20201;-80
2022/10/23 00:15:00;;;;;;;5.20;4.70;;;;;;;;;;5051366;28;20558;-80
2022/10/23 00:17:26;;;;;;;5.37;4.50;;;;;;;;;;5052413;28;20202;-80
2022/10/23 00:19:53;;;;;;;5.67;4.70;;;;;;;;;;5052202;28;20212;-80
2022/10/23 00:22:20;;;;;;;4.90;4.43;;;;;;;;;;5052584;28;20255;-80
2022/10/23 00:24:47;;;;;;;5.80;5.20;;;;;;;;;;5052447;28;20634;-80
2022/10/23 00:27:13;;;;;;;6.40;5.07;;;;;;;;;;5052418;28;20202;-80
2022/10/23 00:29:41;;;;;;;6.27;4.87;;;;;;;;;;5051591;28;20221;-80
2022/10/23 00:32:08;;;;;;;5.13;4.37;;;;;;;;;;5052311;28;20210;-80
2022/10/23 00:34:35;;;;;;;5.70;5.13;;;;;;;;;;5051972;28;20197;-80
2022/10/23 00:37:01;;;;;;;4.67;4.07;;;;;;;;;;5052422;28;20210;-80
2022/10/23 00:39:28;;;;;;;9.10;4.70;;;;;;;;;;5051650;28;20259;-80
2022/10/23 00:41:55;;;;;;;5.17;4.67;;;;;;;;;;5051986;28;20209;-80
2022/10/23 00:44:59;;;;;;;4.77;4.20;;;;;;;;;;5051571;28;20212;-80
2022/10/23 00:47:27;;;;;;;10.57;5.13;;;;;;;;;;5052013;28;20198;-80
2022/10/23 00:49:54;;;;;;;5.70;5.20;;;;;;;;;;5051657;28;20218;-80
2022/10/23 00:52:21;;;;;;;12.33;5.27;;;;;;;;;;5051844;28;20567;-80
2022/10/23 00:54:47;;;;;;;5.40;4.73;;;;;;;;;;5051380;28;20617;-79
2022/10/23 00:57:15;;;;;;;6.07;4.73;;;;;;;;;;5052121;28;20209;-80
2022/10/23 00:59:42;;;;;;;7.87;5.27;;;;;;;;;;5051583;28;20201;-80
2022/10/23 01:02:09;;;;;;;5.57;4.97;;;;;;;;;;5051619;28;20287;-80
2022/10/23 01:04:37;;;;;;;6.30;4.87;;;;;;;;;;5051427;28;20206;-80
2022/10/23 01:07:10;;;;;;;5.90;5.20;;;;;;;;;;5051424;28;20285;-80
2022/10/23 01:09:40;;;;;;;6.23;4.67;;;;;;;;;;5051235;28;20198;-80
2022/10/23 01:12:10;;;;;;;5.77;5.17;;;;;;;;;;5051556;28;20260;-80
2022/10/23 01:14:42;;;;;;;5.43;4.93;;;;;;;;;;5051326;28;20263;-80
2022/10/23 01:17:12;;;;;;;5.20;4.70;;;;;;;;;;5050977;28;20216;-80
2022/10/23 01:19:50;;;;;;;8.70;6.07;;;;;;;;;;5051092;28;20260;-80
2022/10/23 01:22:31;;;;;;;6.23;5.37;;;;;;;;;;5051236;28;20207;-80
2022/10/23 01:25:01;;;;;;;5.50;5.00;;;;;;;;;;5051169;28;20201;-80
2022/10/23 01:27:32;;;;;;;6.60;5.50;;;;;;;;;;5050880;28;20202;-80
2022/10/23 01:30:06;;;;;;;5.53;5.03;;;;;;;;;;5051190;28;20225;-80
2022/10/23 01:32:38;;;;;;;5.63;4.70;;;;;;;;;;5050960;28;20198;-80
2022/10/23 01:35:08;;;;;;;5.63;4.90;;;;;;;;;;5050990;28;20206;-80
2022/10/23 01:37:39;;;;;;;7.57;4.87;;;;;;;;;;5050870;28;20213;-80
2022/10/23 01:40:12;;;;;;;6.40;5.23;;;;;;;;;;5050908;28;20221;-80
2022/10/23 01:42:44;;;;;;;5.97;5.37;;;;;;;;;;5050602;28;20209;-80
2022/10/23 01:45:17;;;;;;;6.60;4.97;;;;;;;;;;5050861;28;20205;-80
2022/10/23 01:47:45;;;;;;;6.13;5.07;;;;;;;;;;5051024;28;20198;-80
2022/10/23 01:50:13;;;;;;;12.10;5.47;;;;;;;;;;5050077;28;20304;-80
2022/10/23 01:52:40;;;;;;;6.10;5.20;;;;;;;;;;5051170;28;20213;-80
2022/10/23 01:55:10;;;;;;;11.60;6.07;;;;;;;;;;5050157;28;20206;-80
2022/10/23 01:57:37;;;;;;;5.57;5.03;;;;;;;;;;5050841;28;20259;-80
2022/10/23 02:00:09;;;;;;;8.43;5.50;;;;;;;;;;5050126;28;20210;-80
2022/10/23 02:02:36;;;;;;;6.60;5.23;;;;;;;;;;5050414;28;20226;-80
2022/10/23 02:05:08;;;;;;;7.70;5.40;;;;;;;;;;5050351;28;20201;-80
2022/10/23 02:07:35;;;;;;;6.93;5.50;;;;;;;;;;5050621;28;20251;-80
2022/10/23 02:10:03;;;;;;;5.37;4.77;;;;;;;;;;5050208;28;20209;-80
2022/10/23 02:12:33;;;;;;;6.47;5.13;;;;;;;;;;5036840;28;20343;-79
2022/10/23 02:15:03;;;;;;;5.00;4.53;;;;;;;;;;5050414;28;20363;-80
2022/10/23 02:17:39;;;;;;;5.10;4.60;;;;;;;;;;5050388;28;20687;-80
2022/10/23 02:20:13;;;;;;;7.30;5.30;;;;;;;;;;5049690;28;20212;-80
2022/10/23 02:22:42;;;;;;;6.93;5.23;;;;;;;;;;5050308;28;21002;-80
2022/10/23 02:25:12;;;;;;;5.37;4.87;;;;;;;;;;5050170;28;20209;-79
2022/10/23 02:27:40;;;;;;;5.17;4.67;;;;;;;;;;5050276;28;20608;-79
2022/10/23 02:30:09;;;;;;;5.10;4.67;;;;;;;;;;5050153;28;20642;-80
2022/10/23 02:32:39;;;;;;;8.27;5.47;;;;;;;;;;5050251;28;20234;-80
2022/10/23 02:35:07;;;;;;;5.50;4.90;;;;;;;;;;5050445;28;20205;-80
2022/10/23 02:37:34;;;;;;;6.83;4.93;;;;;;;;;;5050055;28;20703;-80
2022/10/23 02:40:02;;;;;;;5.37;4.63;;;;;;;;;;5054107;28;20630;-80
2022/10/23 02:42:32;;;;;;;5.57;5.07;;;;;;;;;;5054383;28;20201;-80
2022/10/23 02:45:04;;;;;;;6.47;5.73;;;;;;;;;;5054102;28;20208;-80
2022/10/23 02:47:38;;;;;;;6.70;4.40;;;;;;;;;;5053897;28;20758;-80
2022/10/23 02:50:10;;;;;;;5.97;5.37;;;;;;;;;;5054003;28;20199;-79
2022/10/23 02:52:42;;;;;;;8.93;4.83;;;;;;;;;;5054361;28;20205;-80
2022/10/23 02:55:18;;;;;;;7.60;5.30;;;;;;;;;;5053791;28;20256;-80
2022/10/23 02:57:48;;;;;;;5.57;5.07;;;;;;;;;;5053867;28;20205;-80
2022/10/23 03:00:16;;;;;;;9.77;8.60;;;;;;;;;;5053448;28;20194;-80
2022/10/23 03:02:46;;;;;;;25.63;16.40;;;;;;;;;;5053943;28;20285;-80
2022/10/23 03:05:16;;;;;;;11.20;8.50;;;;;;;;;;5053897;28;20205;-80
2022/10/23 03:07:43;;;;;;;22.33;13.40;;;;;;;;;;5053535;28;20205;-80
2022/10/23 03:10:10;;;;;;;61.20;32.43;;;;;;;;;;5053617;28;20605;-80
2022/10/23 03:12:37;;;;;;;14.13;10.73;;;;;;;;;;5053959;28;20653;-79
2022/10/23 03:15:05;;;;;;;6.90;5.43;;;;;;;;;;5053530;28;20264;-79
2022/10/23 03:17:31;;;;;;;7.63;5.43;;;;;;;;;;5053773;28;20201;-80
2022/10/23 03:20:00;;;;;;;5.73;4.20;;;;;;;;;;5053428;28;20209;-80
2022/10/23 03:22:26;;;;;;;5.70;5.00;;;;;;;;;;5053523;28;20255;-80
2022/10/23 03:24:53;;;;;;;9.57;5.03;;;;;;;;;;5052996;28;20289;-79
2022/10/23 03:27:20;;;;;;;6.23;5.10;;;;;;;;;;5054049;28;20206;-81
2022/10/23 03:29:46;;;;;;;6.13;5.00;;;;;;;;;;5053444;28;20703;-80
2022/10/23 03:32:13;;;;;;;8.83;5.33;;;;;;;;;;5052965;28;20232;-80
2022/10/23 03:34:40;;;;;;;11.80;4.67;;;;;;;;;;5053207;28;20202;-79
2022/10/23 03:37:08;;;;;;;6.27;5.07;;;;;;;;;;5053439;28;20212;-80
2022/10/23 03:39:35;;;;;;;6.87;4.83;;;;;;;;;;5052674;28;20307;-80
2022/10/23 03:42:01;;;;;;;6.17;5.50;;;;;;;;;;5053104;28;20205;-80
2022/10/23 03:44:29;;;;;;;10.07;5.83;;;;;;;;;;5053262;28;20217;-80
2022/10/23 03:46:56;;;;;;;7.90;5.47;;;;;;;;;;5053040;28;20263;-80
2022/10/23 03:49:23;;;;;;;5.17;4.53;;;;;;;;;;5052647;28;20264;-79
2022/10/23 03:51:51;;;;;;;7.43;4.17;;;;;;;;;;5052795;28;20222;-80
2022/10/23 03:54:21;;;;;;;4.93;4.33;;;;;;;;;;5053310;28;20212;-80
2022/10/23 03:56:48;;;;;;;9.37;6.80;;;;;;;;;;5053169;28;20202;-80
2022/10/23 03:59:15;;;;;;;10.73;8.00;;;;;;;;;;5052453;28;20202;-80
2022/10/23 04:01:42;;;;;;;7.87;5.03;;;;;;;;;;5052934;28;20210;-80
2022/10/23 04:04:08;;;;;;;6.07;4.57;;;;;;;;;;5053081;28;20206;-81
2022/10/23 04:06:35;;;;;;;5.30;3.57;;;;;;;;;;5052326;28;20264;-81
2022/10/23 04:09:02;;;;;;;6.17;3.60;;;;;;;;;;5052845;28;20198;-80
2022/10/23 04:11:31;;;;;;;6.67;4.73;;;;;;;;;;5052405;28;20221;-80
2022/10/23 04:13:57;;;;;;;4.20;3.80;;;;;;;;;;5052588;28;20209;-81
2022/10/23 04:16:25;;;;;;;5.83;3.67;;;;;;;;;;5052615;28;20264;-80
2022/10/23 04:18:52;;;;;;;16.30;4.40;;;;;;;;;;5052329;28;20601;-81
2022/10/23 04:21:18;;;;;;;7.97;3.77;;;;;;;;;;5052366;28;20738;-82
2022/10/23 04:23:45;;;;;;;3.80;3.40;;;;;;;;;;5052516;28;20267;-81
2022/10/23 04:26:12;;;;;;;5.00;3.60;;;;;;;;;;5052304;28;20198;-81
2022/10/23 04:28:41;;;;;;;6.73;3.43;;;;;;;;;;5052304;28;20633;-81
2022/10/23 04:31:08;;;;;;;3.93;3.10;;;;;;;;;;5051955;28;20218;-81
2022/10/23 04:33:35;;;;;;;3.03;2.73;;;;;;;;;;5052113;28;20688;-81
2022/10/23 04:36:01;;;;;;;5.70;3.10;;;;;;;;;;5052302;28;20202;-81
2022/10/23 04:38:28;;;;;;;5.40;2.73;;;;;;;;;;5051849;28;20207;-82
2022/10/23 04:40:55;;;;;;;7.00;3.40;;;;;;;;;;5052115;28;20214;-81
2022/10/23 04:43:25;;;;;;;7.87;2.83;;;;;;;;;;5052456;28;20203;-80
2022/10/23 04:45:53;;;;;;;4.10;3.23;;;;;;;;;;5052125;28;20211;-81
2022/10/23 04:48:19;;;;;;;4.47;3.00;;;;;;;;;;5051678;28;20979;-81
2022/10/23 04:50:55;;;;;;;7.47;3.60;;;;;;;;;;5051560;28;20200;-81
2022/10/23 04:53:22;;;;;;;6.60;3.67;;;;;;;;;;5051941;28;20747;-82
2022/10/23 04:55:49;;;;;;;4.80;3.03;;;;;;;;;;5051905;28;20209;-82
2022/10/23 04:58:16;;;;;;;3.47;3.07;;;;;;;;;;5051794;28;20639;-81
2022/10/23 05:00:43;;;;;;;5.90;3.30;;;;;;;;;;5050892;28;20202;-81
2022/10/23 05:03:11;;;;;;;6.77;3.50;;;;;;;;;;5051965;28;20234;-81
2022/10/23 05:05:38;;;;;;;4.13;3.13;;;;;;;;;;5051457;28;20255;-81
2022/10/23 05:08:05;;;;;;;7.83;4.40;;;;;;;;;;5051834;28;20567;-82
2022/10/23 05:10:31;;;;;;;7.20;3.70;;;;;;;;;;5051299;28;20624;-82
2022/10/23 05:12:58;;;;;;;9.63;3.73;;;;;;;;;;5051555;28;20222;-81
2022/10/23 05:15:25;;;;;;;5.53;3.87;;;;;;;;;;5051117;28;20210;-80
2022/10/23 05:17:54;;;;;;;3.37;3.03;;;;;;;;;;5051568;28;20606;-82
2022/10/23 05:20:25;;;;;;;4.60;3.30;;;;;;;;;;5050961;28;20719;-81
2022/10/23 05:22:53;;;;;;;9.90;3.40;;;;;;;;;;5051492;28;20206;-82
2022/10/23 05:25:20;;;;;;;7.20;4.03;;;;;;;;;;5051326;28;20210;-82
2022/10/23 05:27:47;;;;;;;5.70;3.30;;;;;;;;;;5051072;28;20600;-80
2022/10/23 05:30:14;;;;;;;5.63;3.77;;;;;;;;;;5050692;28;20214;-80
2022/10/23 05:32:41;;;;;;;8.93;4.17;;;;;;;;;;5050994;28;20727;-81
2022/10/23 05:35:09;;;;;;;3.80;3.13;;;;;;;;;;5050903;28;20216;-82
2022/10/23 05:37:40;;;;;;;4.80;3.40;;;;;;;;;;5051048;28;20199;-83
2022/10/23 05:40:08;;;;;;;7.00;4.27;;;;;;;;;;5050715;28;20633;-80
2022/10/23 05:42:35;;;;;;;5.93;4.00;;;;;;;;;;5050534;28;20206;-82
2022/10/23 05:45:01;;;;;;;10.57;3.47;;;;;;;;;;5051074;28;20215;-83
2022/10/23 05:47:30;;;;;;;5.63;3.30;;;;;;;;;;5050941;28;20216;-81
2022/10/23 05:49:57;;;;;;;6.87;4.23;;;;;;;;;;5050336;28;20215;-81
2022/10/23 05:52:24;;;;;;;9.13;3.90;;;;;;;;;;5051196;28;20234;-82
2022/10/23 05:54:52;;;;;;;6.30;3.53;;;;;;;;;;5050156;28;20230;-81
2022/10/23 05:57:19;;;;;;;6.43;3.93;;;;;;;;;;5050722;28;20205;-82
2022/10/23 05:59:46;;;;;;;8.10;3.33;;;;;;;;;;5050334;28;20213;-82
2022/10/23 06:02:12;;;;;;;8.30;4.00;;;;;;;;;;5050391;28;20228;-82
2022/10/23 06:04:39;;;;;;;4.10;3.70;;;;;;;;;;5050583;28;20257;-82
2022/10/23 06:07:06;;;;;;;5.27;3.40;;;;;;;;;;5050677;28;20204;-83
2022/10/23 06:09:36;;;;;;;9.37;4.13;;;;;;;;;;5049784;28;20216;-82
2022/10/23 06:12:04;;;;;;;8.87;4.27;;;;;;;;;;5050228;28;20233;-82
2022/10/23 06:14:31;;;;;;;9.40;3.90;;;;;;;;;;5050109;28;20211;-82
2022/10/23 06:16:58;;;;;;;6.37;3.40;;;;;;;;;;5050308;28;20206;-82
2022/10/23 06:19:25;;;;;;;3.97;3.10;;;;;;;;;;5050499;28;20766;-82
2022/10/23 06:21:51;;;;;;;4.90;3.53;;;;;;;;;;5050309;28;20813;-81
2022/10/23 06:24:18;;;;;;;6.80;3.80;;;;;;;;;;5049968;28;20209;-82
2022/10/23 06:26:45;;;;;;;4.23;2.77;;;;;;;;;;5050207;28;20205;-81
2022/10/23 06:29:13;;;;;;;6.20;3.70;;;;;;;;;;5049911;28;20198;-81
2022/10/23 06:31:40;;;;;;;5.97;3.73;;;;;;;;;;5050165;28;20225;-85
2022/10/23 06:34:06;;;;;;;4.77;3.50;;;;;;;;;;5050100;28;20644;-81
2022/10/23 06:36:33;;;;;;;4.40;3.17;;;;;;;;;;5050105;28;20198;-86
2022/10/23 06:39:00;;;;;;;3.60;2.97;;;;;;;;;;5050357;28;20205;-88
2022/10/23 06:41:27;;;;;;;6.03;3.23;;;;;;;;;;5049998;28;20205;-77
2022/10/23 06:43:54;;;;;;;4.20;3.83;;;;;;;;;;5050365;28;20212;-75
2022/10/23 06:46:22;;;;;;;5.20;2.87;;;;;;;;;;5050022;28;20605;-81
2022/10/23 06:48:49;;;;;;;8.40;4.43;;;;;;;;;;5050348;28;20210;-86
2022/10/23 06:51:17;;;;;;;3.77;2.87;;;;;;;;;;5049630;28;20267;-90
2022/10/23 06:53:44;;;;;;;7.30;3.37;;;;;;;;;;5047650;28;20210;-80
2022/10/23 06:56:11;;;;;;;8.23;2.87;;;;;;;;;;5050271;28;20198;-82
2022/10/23 06:58:39;;;;;;;5.33;3.03;;;;;;;;;;5050047;28;20248;-86
2022/10/23 07:01:07;;;;;;;5.77;2.37;;;;;;;;;;5050159;28;20205;-83
2022/10/23 07:03:35;;;;;;;4.57;2.63;;;;;;;;;;5049681;28;20298;-82
2022/10/23 07:06:03;;;;;;;3.57;2.10;;;;;;;;;;5049940;28;20233;-82
2022/10/23 07:08:30;;;;;;;4.73;2.33;;;;;;;;;;5050176;28;20260;-77
2022/10/23 07:11:02;;;;;;;3.93;2.27;;;;;;;;;;5050725;28;20206;-89
2022/10/23 07:13:28;;;;;;;7.50;2.40;;;;;;;;;;5049998;28;20233;-84
2022/10/23 07:15:55;;;;;;;1.97;1.77;;;;;;;;;;5049389;28;20255;-87
2022/10/23 07:18:22;;;;;;;2.33;1.70;;;;;;;;;;5049954;28;20210;-77
2022/10/23 07:20:57;;;;;;;6.17;3.53;;;;;;;;;;5049751;28;20205;-82
2022/10/23 07:23:24;;;;;;;7.03;2.20;;;;;;;;;;5049849;28;20197;-84
2022/10/23 07:25:51;;;;;;;2.33;2.10;;;;;;;;;;5053244;28;20202;-84
2022/10/23 07:28:17;;;;;;;5.47;2.40;;;;;;;;;;5053409;28;20206;-84
2022/10/23 07:30:44;;;;;;;2.53;2.13;;;;;;;;;;5052908;28;20206;-86
2022/10/23 07:33:12;;;;;;;3.57;1.87;;;;;;;;;;5053114;28;20229;-83
2022/10/23 07:35:39;;;;;;;3.33;2.10;;;;;;;;;;5053390;28;20239;-82
2022/10/23 07:38:08;;;;;;;3.43;2.07;;;;;;;;;;5053542;28;20202;-81
2022/10/23 07:40:34;;;;;;;7.80;2.60;;;;;;;;;;5053454;28;20209;-83
2022/10/23 07:43:02;;;;;;;5.53;2.10;;;;;;;;;;5052807;28;20208;-89
2022/10/23 07:45:28;;;;;;;3.67;2.23;;;;;;;;;;5052974;28;20666;-83
2022/10/23 07:47:55;;;;;;;5.10;1.97;;;;;;;;;;5053516;28;20201;-84
2022/10/23 07:50:22;;;;;;;7.97;2.67;;;;;;;;;;5039824;28;20636;-87
2022/10/23 07:52:49;;;;;;;4.00;1.70;;;;;;;;;;5053431;28;20222;-82
2022/10/23 07:55:17;;;;;;;1.43;1.33;;;;;;;;;;5052802;28;20279;-82
2022/10/23 07:57:44;;;;;;;2.27;1.23;;;;;;;;;;5053248;28;20210;-79
2022/10/23 08:00:12;;;;;;;4.17;1.20;;;;;;;;;;5052678;28;20209;-80
2022/10/23 08:02:38;;;;;;;5.47;1.43;;;;;;;;;;5052638;28;20755;-81
2022/10/23 08:05:08;;;;;;;7.63;1.37;;;;;;;;;;5052415;28;20209;-79
2022/10/23 08:07:35;;;;;;;3.83;1.30;;;;;;;;;;5052794;28;20202;-79
2022/10/23 08:10:01;;;;;;;2.37;1.40;;;;;;;;;;5052858;28;20194;-79
2022/10/23 08:12:30;;;;;;;3.73;1.30;;;;;;;;;;5038058;28;20226;-79
2022/10/23 08:14:56;;;;;;;2.93;1.40;;;;;;;;;;5052046;28;20217;-78
2022/10/23 08:17:23;;;;;;;4.00;1.50;;;;;;;;;;5052567;28;20214;-79
2022/10/23 08:19:50;;;;;;;1.37;1.30;;;;;;;;;;5052345;28;20201;-79
2022/10/23 08:22:17;;;;;;;2.13;2.00;;;;;;;;;;5051729;28;20205;-79
2022/10/23 08:24:43;;;;;;;1.40;1.20;;;;;;;;;;5051296;28;20214;-79
2022/10/23 08:27:10;;;;;;;1.50;1.40;;;;;;;;;;5052421;28;20225;-80
2022/10/23 08:29:38;;;;;;;1.70;1.43;;;;;;;;;;5052336;28;20570;-78
2022/10/23 08:32:05;;;;;;;1.60;1.17;;;;;;;;;;5052309;28;20229;-78
2022/10/23 08:34:32;;;;;;;2.80;1.43;;;;;;;;;;5052051;28;20573;-77
2022/10/23 08:36:59;;;;;;;1.83;1.70;;;;;;;;;;5051420;28;20206;-78
2022/10/23 08:39:25;;;;;;;1.60;1.30;;;;;;;;;;5051707;28;20220;-80
2022/10/23 08:41:53;;;;;;;1.50;1.40;;;;;;;;;;5052179;28;20206;-79
2022/10/23 08:44:23;;;;;;;1.37;1.27;;;;;;;;;;5051146;28;20704;-78
2022/10/23 08:47:00;;;;;;;1.00;1.00;;;;;;;;;;5052235;28;20612;-79
2022/10/23 08:49:36;;;;;;;1.67;1.10;;;;;;;;;;5052088;28;20212;-78
2022/10/23 08:52:11;;;;;;;0.93;0.93;;;;;;;;;;5051610;28;20201;-80
2022/10/23 08:54:47;;;;;;;1.50;1.00;;;;;;;;;;5051791;28;20274;-78
2022/10/23 08:57:16;;;;;;;0.90;0.90;;;;;;;;;;5038564;28;20202;-79
2022/10/23 08:59:46;;;;;;;0.80;0.80;;;;;;;;;;5051647;28;20201;-79
2022/10/23 09:02:18;;;;;;;0.90;0.90;;;;;;;;;;5051584;28;20230;-79
2022/10/23 09:04:47;;;;;;;1.43;1.33;;;;;;;;;;5051587;28;20642;-80
2022/10/23 09:07:22;;;;;;;2.43;1.27;;;;;;;;;;5051565;28;20190;-78
2022/10/23 09:10:01;;;;;;;0.90;0.90;;;;;;;;;;5051459;28;20201;-79
2022/10/23 09:12:29;;;;;;;2.77;1.07;;;;;;;;;;5051509;28;20222;-78
2022/10/23 09:15:04;;;;;;;1.00;1.00;;;;;;;;;;5050579;28;20208;-79
2022/10/23 09:17:34;;;;;;;0.97;0.97;;;;;;;;;;5051408;28;20205;-78
2022/10/23 09:20:10;;;;;;;0.80;0.80;;;;;;;;;;5051405;28;20715;-79
2022/10/23 09:22:37;;;;;;;0.80;0.80;;;;;;;;;;5051237;28;20206;-81
2022/10/23 09:25:09;;;;;;;5.60;1.33;;;;;;;;;;5051282;28;21719;-79
2022/10/23 09:27:35;;;;;;;1.67;0.80;;;;;;;;;;5051116;28;20205;-79
2022/10/23 09:30:02;;;;;;;2.40;1.00;;;;;;;;;;5051094;28;20211;-78
2022/10/23 09:32:35;;;;;;;1.53;1.40;;;;;;;;;;5051348;28;20587;-79
2022/10/23 09:35:02;;;;;;;0.67;0.67;;;;;;;;;;5051216;28;20273;-79
2022/10/23 09:37:30;;;;;;;1.40;1.30;;;;;;;;;;5050971;28;20197;-79
2022/10/23 09:40:19;;;;;;;0.90;0.90;;;;;;;;;;5050960;28;20209;-79
2022/10/23 09:42:54;;;;;;;0.80;0.80;;;;;;;;;;5047434;28;20205;-78
2022/10/23 09:45:24;;;;;;;0.90;0.90;;;;;;;;;;5050567;28;20632;-79
2022/10/23 09:47:52;;;;;;;0.90;0.90;;;;;;;;;;5050649;28;20225;-80
2022/10/23 09:50:20;;;;;;;3.80;1.10;;;;;;;;;;5050091;28;20685;-78
2022/10/23 09:52:52;;;;;;;1.10;1.00;;;;;;;;;;5050626;28;20226;-79
2022/10/23 09:55:21;;;;;;;1.70;1.10;;;;;;;;;;5050879;28;20194;-80
2022/10/23 09:57:49;;;;;;;1.30;1.20;;;;;;;;;;5050682;28;20210;-79
2022/10/23 10:00:19;;;;;;;1.13;1.07;;;;;;;;;;5050424;28;20206;-79
2022/10/23 10:02:57;;;;;;;1.20;1.20;;;;;;;;;;5050798;28;20240;-79
2022/10/23 10:05:26;;;;;;;1.00;1.00;;;;;;;;;;5050448;28;20229;-79
2022/10/23 10:07:56;;;;;;;2.33;1.10;;;;;;;;;;5050599;28;20209;-81
2022/10/23 10:10:26;;;;;;;1.07;1.00;;;;;;;;;;5050348;28;20217;-79
2022/10/23 10:12:56;;;;;;;0.90;0.90;;;;;;;;;;5050805;28;20240;-81
2022/10/23 10:15:27;;;;;;;1.07;0.97;;;;;;;;;;5049466;28;20677;-80
2022/10/23 10:18:06;;;;;;;1.20;1.10;;;;;;;;;;5050552;28;20198;-80
2022/10/23 10:20:47;;;;;;;1.40;1.30;;;;;;;;;;5050086;28;20684;-80
2022/10/23 10:23:19;;;;;;;1.40;1.30;;;;;;;;;;5050658;28;20202;-80
2022/10/23 10:25:51;;;;;;;1.50;1.40;;;;;;;;;;5049828;28;20202;-80
2022/10/23 10:28:31;;;;;;;1.40;1.30;;;;;;;;;;5050401;28;20680;-80
2022/10/23 10:31:06;;;;;;;1.90;1.30;;;;;;;;;;5050036;28;20212;-80
2022/10/23 10:33:42;;;;;;;1.10;1.10;;;;;;;;;;5050482;28;20225;-81
2022/10/23 10:36:14;;;;;;;1.10;1.10;;;;;;;;;;5049889;28;20201;-81
2022/10/23 10:38:45;;;;;;;2.27;1.40;;;;;;;;;;5050245;28;20205;-80
2022/10/23 10:41:37;;;;;;;2.83;1.33;;;;;;;;;;5050394;28;20193;-79
2022/10/23 10:44:24;;;;;;;3.30;1.20;;;;;;;;;;5049672;28;20591;-80
2022/10/23 10:46:55;;;;;;;1.10;1.10;;;;;;;;;;5038880;28;20198;-79
2022/10/23 10:49:27;;;;;;;1.40;1.30;;;;;;;;;;5050474;28;20213;-79
2022/10/23 10:52:01;;;;;;;1.23;1.13;;;;;;;;;;5050345;28;20214;-80
2022/10/23 10:54:38;;;;;;;2.83;1.20;;;;;;;;;;5049981;28;20233;-80
2022/10/23 10:57:11;;;;;;;1.50;1.40;;;;;;;;;;5049560;28;20691;-80
2022/10/23 10:59:40;;;;;;;4.47;1.50;;;;;;;;;;5052160;28;20198;-80
2022/10/23 11:02:20;;;;;;;1.17;1.17;;;;;;;;;;5053926;28;20279;-80
2022/10/23 11:04:53;;;;;;;1.90;1.80;;;;;;;;;;5054253;28;20266;-79
2022/10/23 11:07:22;;;;;;;1.50;1.37;;;;;;;;;;5052599;28;20229;-80
2022/10/23 11:09:50;;;;;;;1.07;1.07;;;;;;;;;;5053548;28;20212;-79
2022/10/23 11:12:22;;;;;;;1.50;1.20;;;;;;;;;;5053503;28;20205;-80
2022/10/23 11:14:49;;;;;;;2.67;1.20;;;;;;;;;;5053709;28;20257;-79
2022/10/23 11:17:23;;;;;;;8.90;1.53;;;;;;;;;;5053664;28;20228;-79
2022/10/23 11:19:57;;;;;;;2.17;1.10;;;;;;;;;;5053890;28;20285;-79
2022/10/23 11:22:28;;;;;;;1.33;1.23;;;;;;;;;;5052674;28;20213;-80
2022/10/23 11:25:09;;;;;;;1.43;1.33;;;;;;;;;;5053171;28;20232;-81
2022/10/23 11:28:03;;;;;;;1.13;1.10;;;;;;;;;;5053416;28;20206;-78
2022/10/23 11:30:31;;;;;;;2.23;1.40;;;;;;;;;;5040652;28;20197;-80
2022/10/23 11:33:29;;;;;;;1.40;1.23;;;;;;;;;;5053399;28;20209;-80
2022/10/23 11:36:06;;;;;;;1.20;1.10;;;;;;;;;;5053201;28;20209;-80
2022/10/23 11:38:34;;;;;;;1.23;1.13;;;;;;;;;;5053498;28;20216;-80
2022/10/23 11:41:04;;;;;;;4.50;1.30;;;;;;;;;;5052817;28;20225;-79
2022/10/23 11:43:34;;;;;;;5.23;1.53;;;;;;;;;;5053577;28;20210;-80
2022/10/23 11:46:12;;;;;;;1.97;1.10;;;;;;;;;;5052747;28;20202;-79
2022/10/23 11:48:40;;;;;;;0.80;0.80;;;;;;;;;;5053373;28;20202;-78
2022/10/23 11:51:28;;;;;;;2.60;1.50;;;;;;;;;;5053213;28;20206;-80
2022/10/23 11:54:05;;;;;;;1.13;1.13;;;;;;;;;;5053539;28;20229;-79
2022/10/23 11:56:33;;;;;;;1.40;1.30;;;;;;;;;;5052900;28;20216;-79
2022/10/23 11:59:00;;;;;;;1.47;1.13;;;;;;;;;;5052379;28;20289;-80
2022/10/23 12:01:34;;;;;;;3.80;1.40;;;;;;;;;;5052196;28;20225;-80
2022/10/23 12:04:03;;;;;;;1.00;1.00;;;;;;;;;;5052267;28;20225;-79
2022/10/23 12:06:39;;;;;;;2.80;1.20;;;;;;;;;;5052111;28;20194;-80
2022/10/23 12:09:22;;;;;;;1.00;1.00;;;;;;;;;;5052267;28;20228;-79
2022/10/23 12:11:51;;;;;;;1.00;1.00;;;;;;;;;;5050893;28;20209;-79
2022/10/23 12:14:29;;;;;;;3.27;1.27;;;;;;;;;;5051578;28;20253;-80
2022/10/23 12:16:56;;;;;;;2.53;1.27;;;;;;;;;;5052726;28;20204;-79
2022/10/23 12:19:25;;;;;;;1.00;1.00;;;;;;;;;;5052290;28;20198;-79
2022/10/23 12:21:55;;;;;;;1.10;1.10;;;;;;;;;;5052645;28;20194;-79
2022/10/23 12:24:38;;;;;;;2.17;1.10;;;;;;;;;;5052733;28;20252;-81
2022/10/23 12:27:16;;;;;;;3.60;1.53;;;;;;;;;;5040017;28;20240;-79
2022/10/23 12:29:55;;;;;;;1.40;1.30;;;;;;;;;;5052542;28;20198;-79
2022/10/23 12:32:53;;;;;;;0.83;0.83;;;;;;;;;;5052702;28;20209;-80
2022/10/23 12:35:46;;;;;;;1.33;1.27;;;;;;;;;;5051785;28;20728;-79
2022/10/23 12:38:16;;;;;;;2.73;0.90;;;;;;;;;;5052574;28;20202;-79
2022/10/23 12:40:45;;;;;;;1.40;1.23;;;;;;;;;;5052327;28;20209;-80
2022/10/23 12:43:25;;;;;;;1.33;1.10;;;;;;;;;;5052487;28;20209;-80
2022/10/23 12:45:52;;;;;;;1.80;1.27;;;;;;;;;;5052298;28;20209;-79
2022/10/23 12:48:23;;;;;;;1.07;1.07;;;;;;;;;;5052487;28;20213;-79
2022/10/23 12:50:51;;;;;;;1.33;1.30;;;;;;;;;;5052152;28;20205;-79
2022/10/23 12:53:22;;;;;;;1.47;1.33;;;;;;;;;;5052318;28;20198;-79
2022/10/23 12:55:53;;;;;;;1.30;1.30;;;;;;;;;;5052057;28;20197;-79
2022/10/23 12:58:21;;;;;;;0.97;0.97;;;;;;;;;;5052053;28;20311;-80
2022/10/23 13:00:51;;;;;;;1.30;1.30;;;;;;;;;;5052014;28;20201;-80
2022/10/23 13:03:20;;;;;;;1.00;1.00;;;;;;;;;;5052046;28;20234;-79
2022/10/23 13:05:47;;;;;;;1.97;1.60;;;;;;;;;;5052293;28;20206;-81
2022/10/23 13:08:14;;;;;;;1.43;1.33;;;;;;;;;;5051608;28;20575;-80
2022/10/23 13:10:42;;;;;;;1.30;1.20;;;;;;;;;;5051152;28;20217;-79
2022/10/23 13:13:11;;;;;;;2.33;1.40;;;;;;;;;;5051865;28;20202;-80
2022/10/23 13:15:39;;;;;;;1.50;1.40;;;;;;;;;;5051378;28;20213;-79
2022/10/23 13:18:07;;;;;;;2.60;1.23;;;;;;;;;;5052030;28;20260;-79
2022/10/23 13:20:36;;;;;;;1.23;1.13;;;;;;;;;;5051269;28;20201;-80
2022/10/23 13:23:10;;;;;;;1.23;1.20;;;;;;;;;;5050817;28;20234;-80
2022/10/23 13:25:38;;;;;;;1.33;1.00;;;;;;;;;;5051609;28;20202;-80
2022/10/23 13:28:14;;;;;;;2.30;1.13;;;;;;;;;;5051425;28;20198;-80
2022/10/23 13:30:42;;;;;;;2.10;1.70;;;;;;;;;;5043004;28;20250;-80
2022/10/23 13:33:16;;;;;;;1.40;1.30;;;;;;;;;;5045477;28;20300;-80
2022/10/23 13:35:42;;;;;;;1.30;1.20;;;;;;;;;;5050929;28;20225;-78
2022/10/23 13:38:09;;;;;;;2.30;1.20;;;;;;;;;;5051148;28;20311;-80
2022/10/23 13:40:36;;;;;;;2.53;1.20;;;;;;;;;;5051118;28;20631;-80
2022/10/23 13:43:08;;;;;;;0.90;0.90;;;;;;;;;;5051247;28;20212;-80
2022/10/23 13:45:35;;;;;;;1.07;1.07;;;;;;;;;;5050852;28;20202;-79
2022/10/23 13:48:02;;;;;;;1.10;1.10;;;;;;;;;;5050920;28;20699;-79
2022/10/23 13:50:30;;;;;;;4.77;1.40;;;;;;;;;;5050663;28;20209;-79
2022/10/23 13:52:57;;;;;;;1.43;1.30;;;;;;;;;;5051388;28;20202;-80
2022/10/23 13:55:24;;;;;;;1.33;1.23;;;;;;;;;;5050871;28;20226;-80
2022/10/23 13:57:51;;;;;;;2.47;1.13;;;;;;;;;;5051011;28;20592;-81
2022/10/23 14:00:20;;;;;;;1.03;0.97;;;;;;;;;;5050805;28;20213;-79
2022/10/23 14:02:47;;;;;;;1.20;1.00;;;;;;;;;;5050690;28;20711;-79
2022/10/23 14:05:13;;;;;;;1.80;1.13;;;;;;;;;;5050326;28;20205;-80
2022/10/23 14:07:40;;;;;;;1.00;1.00;;;;;;;;;;5050825;28;21080;-79
2022/10/23 14:10:07;;;;;;;1.00;1.00;;;;;;;;;;5050082;28;20596;-80
2022/10/23 14:12:41;;;;;;;1.97;1.77;;;;;;;;;;5050778;28;20201;-80
2022/10/23 14:15:10;;;;;;;1.23;1.13;;;;;;;;;;5050321;28;20229;-79
2022/10/23 14:17:38;;;;;;;1.57;1.47;;;;;;;;;;5036980;28;20193;-79
2022/10/23 14:20:06;;;;;;;1.70;1.17;;;;;;;;;;5050481;28;20281;-79
2022/10/23 14:22:32;;;;;;;2.33;1.77;;;;;;;;;;5050654;28;20205;-79
2022/10/23 14:25:02;;;;;;;1.40;1.30;;;;;;;;;;5050371;28;20206;-80
2022/10/23 14:27:29;;;;;;;1.63;1.10;;;;;;;;;;5050391;28;20259;-79
2022/10/23 14:29:58;;;;;;;4.17;1.60;;;;;;;;;;5049973;28;20217;-79
2022/10/23 14:32:25;;;;;;;2.27;1.60;;;;;;;;;;5050384;28;20206;-80
2022/10/23 14:34:54;;;;;;;2.37;1.40;;;;;;;;;;5049604;28;20304;-79
2022/10/23 14:37:23;;;;;;;2.90;2.63;;;;;;;;;;5050412;28;20335;-80
2022/10/23 14:39:50;;;;;;;1.40;1.30;;;;;;;;;;5050399;28;20198;-80
2022/10/23 14:42:17;;;;;;;3.37;1.70;;;;;;;;;;5049697;28;20635;-81
2022/10/23 14:44:44;;;;;;;8.30;3.60;;;;;;;;;;5050180;28;20220;-80
2022/10/23 14:47:19;;;;;;;3.53;2.57;;;;;;;;;;5050296;28;20202;-79
2022/10/23 14:49:49;;;;;;;4.23;3.20;;;;;;;;;;5049877;28;20197;-80
2022/10/23 14:52:17;;;;;;;1.50;1.40;;;;;;;;;;5050368;28;20676;-79
2022/10/23 14:54:44;;;;;;;1.10;1.10;;;;;;;;;;5049638;28;20236;-80
2022/10/23 14:57:15;;;;;;;1.30;1.20;;;;;;;;;;5036398;28;20218;-80